sensor_id;sensor_type;location;lat;lon;timestamp;pressure;altitude;pressure_sealevel;temperature;humidity
11987;BME280;6053;51.382;6.768;2023-04-21T00:00:08;101085.69;;;11.84;92.22
11987;BME280;6053;51.382;6.768;2023-04-21T00:02:37;101088.50;;;11.47;93.19
11987;BME280;6053;51.382;6.768;2023-04-21T00:05:08;101083.28;;;11.39;93.50
11987;BME280;6053;51.382;6.768;2023-04-21T00:07:39;101086.13;;;11.50;93.93
11987;BME280;6053;51.382;6.768;2023-04-21T00:10:08;101092.44;;;12.06;86.63
11987;BME280;6053;51.382;6.768;2023-04-21T00:12:37;101087.31;;;11.36;95.19
11987;BME280;6053;51.382;6.768;2023-04-21T00:15:08;101080.88;;;10.55;100.00
11987;BME280;6053;51.382;6.768;2023-04-21T00:17:37;101083.47;;;10.12;100.00
11987;BME280;6053;51.382;6.768;2023-04-21T00:20:07;101070.88;;;11.04;100.00
11987;BME280;6053;51.382;6.768;2023-04-21T00:22:36;101070.69;;;11.24;99.20
11987;BME280;6053;51.382;6.768;2023-04-21T00:25:06;101070.53;;;11.38;99.57
11987;BME280;6053;51.382;6.768;2023-04-21T00:27:34;101062.75;;;10.91;100.00
11987;BME280;6053;51.382;6.768;2023-04-21T00:30:04;101057.81;;;10.50;100.00
11987;BME280;6053;51.382;6.768;2023-04-21T00:32:34;101059.34;;;10.89;100.00
11987;BME280;6053;51.382;6.768;2023-04-21T00:35:03;101054.84;;;10.95;100.00
11987;BME280;6053;51.382;6.768;2023-04-21T00:37:32;101043.88;;;11.06;100.00
11987;BME280;6053;51.382;6.768;2023-04-21T00:40:00;101037.25;;;11.14;100.00
11987;BME280;6053;51.382;6.768;2023-04-21T00:42:30;101033.03;;;11.78;97.84
11987;BME280;6053;51.382;6.768;2023-04-21T00:44:59;101031.75;;;11.81;91.31
11987;BME280;6053;51.382;6.768;2023-04-21T00:47:27;101036.66;;;10.87;100.00
11987;BME280;6053;51.382;6.768;2023-04-21T00:49:58;101036.22;;;11.45;100.00
11987;BME280;6053;51.382;6.768;2023-04-21T00:52:27;101023.41;;;10.96;100.00
11987;BME280;6053;51.382;6.768;2023-04-21T00:54:57;101025.19;;;10.90;100.00
11987;BME280;6053;51.382;6.768;2023-04-21T00:57:27;101019.34;;;10.98;100.00
11987;BME280;6053;51.382;6.768;2023-04-21T00:59:55;101029.38;;;10.93;100.00
11987;BME280;6053;51.382;6.768;2023-04-21T01:02:24;101027.03;;;11.51;97.58
11987;BME280;6053;51.382;6.768;2023-04-21T01:04:54;101041.09;;;11.98;93.76
11987;BME280;6053;51.382;6.768;2023-04-21T01:07:25;101034.78;;;11.61;97.69
11987;BME280;6053;51.382;6.768;2023-04-21T01:09:54;101034.81;;;11.91;93.12
11987;BME280;6053;51.382;6.768;2023-04-21T01:12:22;101038.97;;;10.90;100.00
11987;BME280;6053;51.382;6.768;2023-04-21T01:14:51;101041.31;;;9.66;100.00
11987;BME280;6053;51.382;6.768;2023-04-21T01:17:20;101034.75;;;10.88;100.00
11987;BME280;6053;51.382;6.768;2023-04-21T01:19:50;101025.44;;;10.64;100.00
11987;BME280;6053;51.382;6.768;2023-04-21T01:22:22;101028.59;;;10.85;100.00
11987;BME280;6053;51.382;6.768;2023-04-21T01:24:50;101020.78;;;11.56;98.55
11987;BME280;6053;51.382;6.768;2023-04-21T01:27:19;101008.50;;;11.70;100.00
11987;BME280;6053;51.382;6.768;2023-04-21T01:29:50;101017.91;;;11.81;98.45
11987;BME280;6053;51.382;6.768;2023-04-21T01:32:20;101026.47;;;10.88;100.00
11987;BME280;6053;51.382;6.768;2023-04-21T01:34:50;101019.63;;;9.83;100.00
11987;BME280;6053;51.382;6.768;2023-04-21T01:37:22;101012.53;;;11.19;100.00
11987;BME280;6053;51.382;6.768;2023-04-21T01:39:54;101013.06;;;10.91;100.00
11987;BME280;6053;51.382;6.768;2023-04-21T01:42:26;101018.59;;;11.28;100.00
11987;BME280;6053;51.382;6.768;2023-04-21T01:44:55;101018.94;;;10.26;100.00
11987;BME280;6053;51.382;6.768;2023-04-21T01:47:24;101017.81;;;11.39;100.00
11987;BME280;6053;51.382;6.768;2023-04-21T01:49:53;101022.00;;;11.60;100.00
11987;BME280;6053;51.382;6.768;2023-04-21T01:52:23;101019.41;;;11.65;100.00
11987;BME280;6053;51.382;6.768;2023-04-21T01:54:51;101006.53;;;10.85;100.00
11987;BME280;6053;51.382;6.768;2023-04-21T01:57:20;101004.38;;;10.44;100.00
11987;BME280;6053;51.382;6.768;2023-04-21T01:59:48;101002.09;;;11.03;100.00
11987;BME280;6053;51.382;6.768;2023-04-21T02:02:17;101005.81;;;10.72;100.00
11987;BME280;6053;51.382;6.768;2023-04-21T02:04:46;100999.03;;;11.11;100.00
11987;BME280;6053;51.382;6.768;2023-04-21T02:07:14;100999.13;;;11.04;100.00
11987;BME280;6053;51.382;6.768;2023-04-21T02:09:44;101000.66;;;11.37;100.00
11987;BME280;6053;51.382;6.768;2023-04-21T02:12:12;101003.28;;;11.14;100.00
11987;BME280;6053;51.382;6.768;2023-04-21T02:14:41;100999.03;;;11.11;100.00
11987;BME280;6053;51.382;6.768;2023-04-21T02:17:10;101002.81;;;11.17;100.00
11987;BME280;6053;51.382;6.768;2023-04-21T02:19:38;100996.50;;;11.09;100.00
11987;BME280;6053;51.382;6.768;2023-04-21T02:22:07;101002.25;;;11.45;99.90
11987;BME280;6053;51.382;6.768;2023-04-21T02:24:39;101002.66;;;11.60;100.00
11987;BME280;6053;51.382;6.768;2023-04-21T02:27:09;101005.63;;;11.28;100.00
11987;BME280;6053;51.382;6.768;2023-04-21T02:29:37;101003.22;;;10.77;100.00
11987;BME280;6053;51.382;6.768;2023-04-21T02:32:06;100993.56;;;10.68;100.00
11987;BME280;6053;51.382;6.768;2023-04-21T02:34:52;100992.56;;;10.80;100.00
11987;BME280;6053;51.382;6.768;2023-04-21T02:37:20;100992.00;;;10.72;100.00
11987;BME280;6053;51.382;6.768;2023-04-21T02:39:49;100992.91;;;10.47;100.00
11987;BME280;6053;51.382;6.768;2023-04-21T02:42:19;100993.25;;;11.49;100.00
11987;BME280;6053;51.382;6.768;2023-04-21T02:44:47;100993.56;;;11.23;100.00
11987;BME280;6053;51.382;6.768;2023-04-21T02:47:16;101001.09;;;11.34;100.00
11987;BME280;6053;51.382;6.768;2023-04-21T02:49:44;100987.69;;;11.38;100.00
11987;BME280;6053;51.382;6.768;2023-04-21T02:52:13;100996.03;;;11.31;100.00
11987;BME280;6053;51.382;6.768;2023-04-21T02:54:42;100982.34;;;11.54;96.60
11987;BME280;6053;51.382;6.768;2023-04-21T02:57:10;100984.06;;;11.37;100.00
11987;BME280;6053;51.382;6.768;2023-04-21T02:59:40;100984.75;;;11.51;100.00
11987;BME280;6053;51.382;6.768;2023-04-21T03:02:09;100987.78;;;11.61;100.00
11987;BME280;6053;51.382;6.768;2023-04-21T03:04:37;100986.50;;;10.72;100.00
11987;BME280;6053;51.382;6.768;2023-04-21T03:07:11;100988.81;;;11.30;100.00
11987;BME280;6053;51.382;6.768;2023-04-21T03:09:40;100992.09;;;11.57;100.00
11987;BME280;6053;51.382;6.768;2023-04-21T03:12:08;100999.25;;;11.95;93.02
11987;BME280;6053;51.382;6.768;2023-04-21T03:14:37;100998.31;;;11.52;99.79
11987;BME280;6053;51.382;6.768;2023-04-21T03:17:07;101003.06;;;11.64;95.81
11987;BME280;6053;51.382;6.768;2023-04-21T03:19:35;100997.06;;;11.85;94.06
11987;BME280;6053;51.382;6.768;2023-04-21T03:22:04;100997.69;;;11.99;91.29
11987;BME280;6053;51.382;6.768;2023-04-21T03:24:32;100998.56;;;11.81;92.64
11987;BME280;6053;51.382;6.768;2023-04-21T03:27:01;101004.25;;;11.86;90.10
11987;BME280;6053;51.382;6.768;2023-04-21T03:29:30;101007.03;;;11.86;90.07
11987;BME280;6053;51.382;6.768;2023-04-21T03:31:58;101001.34;;;12.11;90.93
11987;BME280;6053;51.382;6.768;2023-04-21T03:34:28;101001.44;;;11.74;95.53
11987;BME280;6053;51.382;6.768;2023-04-21T03:36:57;100999.63;;;11.80;91.04
11987;BME280;6053;51.382;6.768;2023-04-21T03:39:25;101001.28;;;11.88;91.52
11987;BME280;6053;51.382;6.768;2023-04-21T03:41:54;101006.69;;;12.24;90.35
11987;BME280;6053;51.382;6.768;2023-04-21T03:44:24;101014.13;;;12.24;88.38
11987;BME280;6053;51.382;6.768;2023-04-21T03:46:55;101012.91;;;12.20;88.21
11987;BME280;6053;51.382;6.768;2023-04-21T03:49:24;101006.56;;;11.41;95.44
11987;BME280;6053;51.382;6.768;2023-04-21T03:51:54;101002.13;;;11.88;90.79
11987;BME280;6053;51.382;6.768;2023-04-21T03:54:22;101002.75;;;11.84;91.79
11987;BME280;6053;51.382;6.768;2023-04-21T03:56:51;101005.78;;;12.00;89.73
11987;BME280;6053;51.382;6.768;2023-04-21T03:59:19;100999.16;;;12.01;89.71
11987;BME280;6053;51.382;6.768;2023-04-21T04:01:48;100992.22;;;12.11;88.04
11987;BME280;6053;51.382;6.768;2023-04-21T04:04:17;100988.72;;;12.27;85.07
11987;BME280;6053;51.382;6.768;2023-04-21T04:06:46;100991.94;;;12.00;89.72
11987;BME280;6053;51.382;6.768;2023-04-21T04:09:15;100981.06;;;12.17;85.88
11987;BME280;6053;51.382;6.768;2023-04-21T04:11:44;100980.94;;;12.36;85.13
11987;BME280;6053;51.382;6.768;2023-04-21T04:14:13;100983.56;;;12.31;88.02
11987;BME280;6053;51.382;6.768;2023-04-21T04:16:42;100983.72;;;12.36;86.48
11987;BME280;6053;51.382;6.768;2023-04-21T04:19:10;100990.44;;;12.40;83.89
11987;BME280;6053;51.382;6.768;2023-04-21T04:21:39;100990.22;;;12.41;85.30
11987;BME280;6053;51.382;6.768;2023-04-21T04:24:08;100989.81;;;12.26;84.93
11987;BME280;6053;51.382;6.768;2023-04-21T04:26:39;100989.66;;;12.09;88.27
11987;BME280;6053;51.382;6.768;2023-04-21T04:29:07;100990.47;;;11.68;93.10
11987;BME280;6053;51.382;6.768;2023-04-21T04:31:37;100994.47;;;11.84;90.29
11987;BME280;6053;51.382;6.768;2023-04-21T04:34:06;100989.84;;;11.84;90.63
11987;BME280;6053;51.382;6.768;2023-04-21T04:36:35;100993.38;;;12.03;88.33
11987;BME280;6053;51.382;6.768;2023-04-21T04:39:04;101002.66;;;12.09;86.21
11987;BME280;6053;51.382;6.768;2023-04-21T04:41:35;101000.53;;;12.22;84.72
11987;BME280;6053;51.382;6.768;2023-04-21T04:44:05;100998.63;;;12.35;82.95
11987;BME280;6053;51.382;6.768;2023-04-21T04:46:35;100985.66;;;12.70;81.51
11987;BME280;6053;51.382;6.768;2023-04-21T04:49:04;100999.47;;;12.35;87.13
11987;BME280;6053;51.382;6.768;2023-04-21T04:51:32;101000.56;;;12.46;83.28
11987;BME280;6053;51.382;6.768;2023-04-21T04:54:01;101001.03;;;12.31;86.86
11987;BME280;6053;51.382;6.768;2023-04-21T04:56:30;100996.94;;;11.92;89.89
11987;BME280;6053;51.382;6.768;2023-04-21T04:58:58;100998.16;;;11.96;86.43
11987;BME280;6053;51.382;6.768;2023-04-21T05:01:28;101008.31;;;12.14;85.20
11987;BME280;6053;51.382;6.768;2023-04-21T05:03:57;101004.91;;;12.42;84.54
11987;BME280;6053;51.382;6.768;2023-04-21T05:06:26;101006.34;;;12.56;80.92
11987;BME280;6053;51.382;6.768;2023-04-21T05:08:55;101007.22;;;12.68;80.42
11987;BME280;6053;51.382;6.768;2023-04-21T05:11:24;101017.09;;;12.64;83.34
11987;BME280;6053;51.382;6.768;2023-04-21T05:13:52;101011.78;;;12.63;81.47
11987;BME280;6053;51.382;6.768;2023-04-21T05:16:21;101019.84;;;12.64;80.32
11987;BME280;6053;51.382;6.768;2023-04-21T05:18:51;101023.31;;;12.60;80.62
11987;BME280;6053;51.382;6.768;2023-04-21T05:21:24;101015.25;;;12.70;82.59
11987;BME280;6053;51.382;6.768;2023-04-21T05:23:54;101008.75;;;13.11;80.84
11987;BME280;6053;51.382;6.768;2023-04-21T05:26:24;101016.53;;;13.38;80.59
11987;BME280;6053;51.382;6.768;2023-04-21T05:28:54;101021.44;;;13.59;78.02
11987;BME280;6053;51.382;6.768;2023-04-21T05:31:23;101018.03;;;14.26;71.72
11987;BME280;6053;51.382;6.768;2023-04-21T05:33:54;101021.03;;;14.42;75.52
11987;BME280;6053;51.382;6.768;2023-04-21T05:36:22;101020.66;;;15.22;66.99
11987;BME280;6053;51.382;6.768;2023-04-21T05:38:52;101014.84;;;15.46;68.23
11987;BME280;6053;51.382;6.768;2023-04-21T05:41:21;101023.97;;;14.64;68.79
11987;BME280;6053;51.382;6.768;2023-04-21T05:43:50;101016.84;;;14.22;75.95
11987;BME280;6053;51.382;6.768;2023-04-21T05:46:18;101025.22;;;14.73;71.71
11987;BME280;6053;51.382;6.768;2023-04-21T05:48:47;101031.00;;;14.88;72.22
11987;BME280;6053;51.382;6.768;2023-04-21T05:51:17;101016.91;;;14.56;76.76
11987;BME280;6053;51.382;6.768;2023-04-21T05:53:45;101021.94;;;14.76;71.06
11987;BME280;6053;51.382;6.768;2023-04-21T05:56:14;101021.63;;;14.27;75.35
11987;BME280;6053;51.382;6.768;2023-04-21T05:58:42;101019.22;;;13.73;73.99
11987;BME280;6053;51.382;6.768;2023-04-21T06:01:11;101014.94;;;13.54;75.28
11987;BME280;6053;51.382;6.768;2023-04-21T06:03:41;101016.34;;;13.16;82.02
11987;BME280;6053;51.382;6.768;2023-04-21T06:06:10;101019.59;;;13.13;77.91
11987;BME280;6053;51.382;6.768;2023-04-21T06:08:40;101018.25;;;13.04;80.11
11987;BME280;6053;51.382;6.768;2023-04-21T06:11:08;101009.00;;;13.21;76.87
11987;BME280;6053;51.382;6.768;2023-04-21T06:13:37;101003.66;;;13.43;79.53
11987;BME280;6053;51.382;6.768;2023-04-21T06:16:08;101001.03;;;13.37;76.81
11987;BME280;6053;51.382;6.768;2023-04-21T06:18:36;101013.94;;;13.31;80.66
11987;BME280;6053;51.382;6.768;2023-04-21T06:21:05;101016.19;;;13.23;79.31
11987;BME280;6053;51.382;6.768;2023-04-21T06:23:33;101015.84;;;13.31;77.16
11987;BME280;6053;51.382;6.768;2023-04-21T06:26:05;101019.84;;;13.11;79.23
11987;BME280;6053;51.382;6.768;2023-04-21T06:28:34;101019.19;;;13.44;77.03
11987;BME280;6053;51.382;6.768;2023-04-21T06:31:05;101016.53;;;13.50;75.46
11987;BME280;6053;51.382;6.768;2023-04-21T06:33:35;101026.22;;;13.76;77.27
11987;BME280;6053;51.382;6.768;2023-04-21T06:36:04;101012.22;;;13.82;74.50
11987;BME280;6053;51.382;6.768;2023-04-21T06:38:33;101015.25;;;13.98;72.97
11987;BME280;6053;51.382;6.768;2023-04-21T06:41:03;101009.97;;;13.96;74.99
11987;BME280;6053;51.382;6.768;2023-04-21T06:43:32;101014.63;;;14.07;71.98
11987;BME280;6053;51.382;6.768;2023-04-21T06:46:01;101005.03;;;14.15;72.02
11987;BME280;6053;51.382;6.768;2023-04-21T06:48:29;101012.09;;;14.06;75.56
11987;BME280;6053;51.382;6.768;2023-04-21T06:50:58;101001.88;;;13.95;76.31
11987;BME280;6053;51.382;6.768;2023-04-21T06:53:28;101009.53;;;13.87;77.27
11987;BME280;6053;51.382;6.768;2023-04-21T06:55:57;101011.81;;;13.90;80.46
11987;BME280;6053;51.382;6.768;2023-04-21T06:58:27;101003.97;;;14.16;72.03
11987;BME280;6053;51.382;6.768;2023-04-21T07:00:55;101009.25;;;14.34;71.68
11987;BME280;6053;51.382;6.768;2023-04-21T07:03:24;101012.75;;;14.58;72.21
11987;BME280;6053;51.382;6.768;2023-04-21T07:05:53;101016.09;;;14.94;68.68
11987;BME280;6053;51.382;6.768;2023-04-21T07:08:21;101007.53;;;14.96;69.97
11987;BME280;6053;51.382;6.768;2023-04-21T07:10:50;101003.34;;;14.59;74.65
11987;BME280;6053;51.382;6.768;2023-04-21T07:13:18;101006.13;;;14.76;70.46
11987;BME280;6053;51.382;6.768;2023-04-21T07:15:48;101008.66;;;13.99;76.49
11987;BME280;6053;51.382;6.768;2023-04-21T07:18:17;101005.91;;;14.15;76.57
11987;BME280;6053;51.382;6.768;2023-04-21T07:20:45;100999.09;;;14.23;77.49
11987;BME280;6053;51.382;6.768;2023-04-21T07:23:14;101000.75;;;14.53;74.35
11987;BME280;6053;51.382;6.768;2023-04-21T07:25:42;101004.84;;;14.84;75.44
11987;BME280;6053;51.382;6.768;2023-04-21T07:28:11;101006.75;;;15.00;70.52
11987;BME280;6053;51.382;6.768;2023-04-21T07:30:41;101000.69;;;15.03;74.58
11987;BME280;6053;51.382;6.768;2023-04-21T07:33:11;101008.00;;;15.09;71.32
11987;BME280;6053;51.382;6.768;2023-04-21T07:35:40;101003.59;;;15.14;70.92
11987;BME280;6053;51.382;6.768;2023-04-21T07:38:08;101000.13;;;15.23;68.53
11987;BME280;6053;51.382;6.768;2023-04-21T07:40:36;100996.13;;;15.36;67.77
11987;BME280;6053;51.382;6.768;2023-04-21T07:43:05;100999.53;;;15.65;70.58
11987;BME280;6053;51.382;6.768;2023-04-21T07:45:33;100988.16;;;15.45;69.88
11987;BME280;6053;51.382;6.768;2023-04-21T07:48:02;100996.06;;;15.53;66.06
11987;BME280;6053;51.382;6.768;2023-04-21T07:50:33;100994.19;;;14.98;73.55
11987;BME280;6053;51.382;6.768;2023-04-21T07:53:03;101000.63;;;14.65;75.53
11987;BME280;6053;51.382;6.768;2023-04-21T07:55:32;100994.38;;;14.91;73.38
11987;BME280;6053;51.382;6.768;2023-04-21T07:58:00;100993.09;;;15.16;71.43
11987;BME280;6053;51.382;6.768;2023-04-21T08:00:29;101001.81;;;14.69;75.69
11987;BME280;6053;51.382;6.768;2023-04-21T08:02:57;100998.94;;;14.47;75.60
11987;BME280;6053;51.382;6.768;2023-04-21T08:05:26;100994.31;;;14.86;74.02
11987;BME280;6053;51.382;6.768;2023-04-21T08:08:01;101000.63;;;14.81;74.56
11987;BME280;6053;51.382;6.768;2023-04-21T08:10:30;101002.53;;;14.98;73.70
11987;BME280;6053;51.382;6.768;2023-04-21T08:12:58;101005.59;;;13.43;87.25
11987;BME280;6053;51.382;6.768;2023-04-21T08:15:27;100996.72;;;13.06;90.33
11987;BME280;6053;51.382;6.768;2023-04-21T08:17:56;100992.56;;;13.43;85.76
11987;BME280;6053;51.382;6.768;2023-04-21T08:20:24;101001.53;;;12.87;94.54
11987;BME280;6053;51.382;6.768;2023-04-21T08:22:52;101007.75;;;13.17;92.86
11987;BME280;6053;51.382;6.768;2023-04-21T08:25:22;101008.78;;;13.63;87.95
11987;BME280;6053;51.382;6.768;2023-04-21T08:27:50;101011.41;;;13.70;83.51
11987;BME280;6053;51.382;6.768;2023-04-21T08:30:19;101009.88;;;13.91;86.96
11987;BME280;6053;51.382;6.768;2023-04-21T08:32:47;101003.91;;;13.42;92.22
11987;BME280;6053;51.382;6.768;2023-04-21T08:35:16;101007.38;;;14.06;86.32
11987;BME280;6053;51.382;6.768;2023-04-21T08:37:44;101006.41;;;14.29;82.62
11987;BME280;6053;51.382;6.768;2023-04-21T08:40:13;101010.31;;;14.79;80.24
11987;BME280;6053;51.382;6.768;2023-04-21T08:42:43;101003.78;;;14.06;87.25
11987;BME280;6053;51.382;6.768;2023-04-21T08:45:12;101004.69;;;14.57;83.65
11987;BME280;6053;51.382;6.768;2023-04-21T08:47:40;100999.72;;;14.76;82.49
11987;BME280;6053;51.382;6.768;2023-04-21T08:50:12;100998.09;;;15.19;81.07
11987;BME280;6053;51.382;6.768;2023-04-21T08:52:41;101003.34;;;16.35;71.72
11987;BME280;6053;51.382;6.768;2023-04-21T08:55:11;100997.41;;;15.72;76.49
11987;BME280;6053;51.382;6.768;2023-04-21T08:57:41;100997.94;;;15.47;75.50
11987;BME280;6053;51.382;6.768;2023-04-21T09:00:11;100994.91;;;14.71;80.91
11987;BME280;6053;51.382;6.768;2023-04-21T09:02:52;100996.31;;;14.40;81.70
11987;BME280;6053;51.382;6.768;2023-04-21T09:05:28;100991.94;;;14.95;81.52
11987;BME280;6053;51.382;6.768;2023-04-21T09:08:08;100995.16;;;14.87;81.86
11987;BME280;6053;51.382;6.768;2023-04-21T09:10:43;100995.97;;;14.20;87.36
11987;BME280;6053;51.382;6.768;2023-04-21T09:13:14;100988.16;;;14.33;80.65
11987;BME280;6053;51.382;6.768;2023-04-21T09:15:44;100993.53;;;14.06;85.63
11987;BME280;6053;51.382;6.768;2023-04-21T09:18:14;100982.09;;;14.20;84.40
11987;BME280;6053;51.382;6.768;2023-04-21T09:20:44;100981.63;;;14.39;84.47
11987;BME280;6053;51.382;6.768;2023-04-21T09:23:13;100993.94;;;14.15;88.00
11987;BME280;6053;51.382;6.768;2023-04-21T09:25:43;100990.16;;;14.21;85.11
11987;BME280;6053;51.382;6.768;2023-04-21T09:28:14;100988.59;;;13.80;88.43
11987;BME280;6053;51.382;6.768;2023-04-21T09:30:42;100987.00;;;13.84;89.82
11987;BME280;6053;51.382;6.768;2023-04-21T09:33:15;100997.25;;;13.55;89.73
11987;BME280;6053;51.382;6.768;2023-04-21T09:36:00;100991.63;;;13.78;92.18
11987;BME280;6053;51.382;6.768;2023-04-21T09:38:30;100989.50;;;13.68;91.49
11987;BME280;6053;51.382;6.768;2023-04-21T09:40:59;100983.56;;;13.94;90.70
11987;BME280;6053;51.382;6.768;2023-04-21T09:43:29;100980.78;;;14.22;86.20
11987;BME280;6053;51.382;6.768;2023-04-21T09:45:58;100982.44;;;13.49;89.61
11987;BME280;6053;51.382;6.768;2023-04-21T09:48:31;100988.81;;;14.07;87.02
11987;BME280;6053;51.382;6.768;2023-04-21T09:51:01;100987.22;;;14.11;87.38
11987;BME280;6053;51.382;6.768;2023-04-21T09:53:39;100989.22;;;13.70;90.34
11987;BME280;6053;51.382;6.768;2023-04-21T09:56:11;100988.34;;;13.41;90.97
11987;BME280;6053;51.382;6.768;2023-04-21T09:58:45;100975.56;;;13.80;88.36
11987;BME280;6053;51.382;6.768;2023-04-21T10:01:14;100973.59;;;14.09;88.79
11987;BME280;6053;51.382;6.768;2023-04-21T10:03:44;100967.94;;;13.59;93.41
11987;BME280;6053;51.382;6.768;2023-04-21T10:06:15;100967.22;;;14.09;89.89
11987;BME280;6053;51.382;6.768;2023-04-21T10:08:44;100958.75;;;14.32;85.32
11987;BME280;6053;51.382;6.768;2023-04-21T10:11:13;100962.03;;;13.84;88.99
11987;BME280;6053;51.382;6.768;2023-04-21T10:13:43;100964.56;;;13.57;92.56
11987;BME280;6053;51.382;6.768;2023-04-21T10:16:16;100959.03;;;13.85;91.09
11987;BME280;6053;51.382;6.768;2023-04-21T10:18:46;100957.66;;;13.88;90.71
11987;BME280;6053;51.382;6.768;2023-04-21T10:21:17;100955.63;;;14.12;87.99
11987;BME280;6053;51.382;6.768;2023-04-21T10:23:49;100967.75;;;14.73;84.16
11987;BME280;6053;51.382;6.768;2023-04-21T10:26:20;100968.63;;;14.28;87.04
11987;BME280;6053;51.382;6.768;2023-04-21T10:28:55;100953.69;;;14.12;88.64
11987;BME280;6053;51.382;6.768;2023-04-21T10:31:29;100955.44;;;15.08;81.81
11987;BME280;6053;51.382;6.768;2023-04-21T10:34:18;100949.03;;;14.85;84.42
11987;BME280;6053;51.382;6.768;2023-04-21T10:37:09;100957.16;;;14.92;85.08
11987;BME280;6053;51.382;6.768;2023-04-21T10:39:55;100945.97;;;15.26;81.78
11987;BME280;6053;51.382;6.768;2023-04-21T10:42:27;100948.00;;;16.07;73.45
11987;BME280;6053;51.382;6.768;2023-04-21T10:45:17;100945.03;;;16.18;76.38
11987;BME280;6053;51.382;6.768;2023-04-21T10:47:47;100942.66;;;15.51;79.23
11987;BME280;6053;51.382;6.768;2023-04-21T10:50:20;100930.00;;;15.16;81.46
11987;BME280;6053;51.382;6.768;2023-04-21T10:52:54;100927.72;;;15.35;79.24
11987;BME280;6053;51.382;6.768;2023-04-21T10:55:26;100931.28;;;14.87;84.56
11987;BME280;6053;51.382;6.768;2023-04-21T10:57:55;100929.06;;;14.89;83.25
11987;BME280;6053;51.382;6.768;2023-04-21T11:00:26;100918.31;;;15.14;87.39
11987;BME280;6053;51.382;6.768;2023-04-21T11:02:57;100919.38;;;15.35;81.82
11987;BME280;6053;51.382;6.768;2023-04-21T11:05:34;100906.72;;;15.22;81.12
11987;BME280;6053;51.382;6.768;2023-04-21T11:08:10;100900.72;;;15.79;81.98
11987;BME280;6053;51.382;6.768;2023-04-21T11:10:57;100887.31;;;16.03;79.07
11987;BME280;6053;51.382;6.768;2023-04-21T11:13:27;100885.66;;;16.08;77.90
11987;BME280;6053;51.382;6.768;2023-04-21T11:16:04;100888.94;;;15.72;80.54
11987;BME280;6053;51.382;6.768;2023-04-21T11:18:43;100886.13;;;14.96;83.01
11987;BME280;6053;51.382;6.768;2023-04-21T11:21:13;100882.81;;;14.77;85.59
11987;BME280;6053;51.382;6.768;2023-04-21T11:23:51;100892.03;;;14.44;88.27
11987;BME280;6053;51.382;6.768;2023-04-21T11:26:30;100881.16;;;15.20;82.80
11987;BME280;6053;51.382;6.768;2023-04-21T11:29:00;100879.81;;;15.50;83.03
11987;BME280;6053;51.382;6.768;2023-04-21T11:31:30;100877.28;;;15.75;78.65
11987;BME280;6053;51.382;6.768;2023-04-21T11:33:59;100873.63;;;14.99;84.70
11987;BME280;6053;51.382;6.768;2023-04-21T11:36:28;100862.53;;;15.21;83.88
11987;BME280;6053;51.382;6.768;2023-04-21T11:38:56;100867.25;;;15.20;82.77
11987;BME280;6053;51.382;6.768;2023-04-21T11:41:25;100861.94;;;14.75;85.47
11987;BME280;6053;51.382;6.768;2023-04-21T11:43:54;100854.91;;;15.11;84.44
11987;BME280;6053;51.382;6.768;2023-04-21T11:46:24;100854.78;;;15.50;80.47
11987;BME280;6053;51.382;6.768;2023-04-21T11:49:02;100852.53;;;15.47;82.80
11987;BME280;6053;51.382;6.768;2023-04-21T11:51:35;100854.56;;;15.56;82.13
11987;BME280;6053;51.382;6.768;2023-04-21T11:54:06;100846.66;;;15.70;82.61
11987;BME280;6053;51.382;6.768;2023-04-21T11:56:35;100847.63;;;15.59;81.12
11987;BME280;6053;51.382;6.768;2023-04-21T11:59:10;100832.63;;;15.87;81.14
11987;BME280;6053;51.382;6.768;2023-04-21T12:01:45;100839.56;;;16.22;80.36
11987;BME280;6053;51.382;6.768;2023-04-21T12:04:17;100827.41;;;16.33;79.22
11987;BME280;6053;51.382;6.768;2023-04-21T12:06:53;100833.81;;;16.34;78.36
11987;BME280;6053;51.382;6.768;2023-04-21T12:09:22;100823.50;;;16.34;78.44
11987;BME280;6053;51.382;6.768;2023-04-21T12:11:51;100826.47;;;15.85;79.05
11987;BME280;6053;51.382;6.768;2023-04-21T12:14:21;100815.03;;;16.19;78.25
11987;BME280;6053;51.382;6.768;2023-04-21T12:16:52;100815.88;;;15.82;81.13
11987;BME280;6053;51.382;6.768;2023-04-21T12:19:24;100816.81;;;15.93;79.80
11987;BME280;6053;51.382;6.768;2023-04-21T12:21:53;100808.34;;;15.77;78.92
11987;BME280;6053;51.382;6.768;2023-04-21T12:24:22;100793.81;;;16.55;77.22
11987;BME280;6053;51.382;6.768;2023-04-21T12:26:50;100783.16;;;16.42;76.58
11987;BME280;6053;51.382;6.768;2023-04-21T12:29:19;100781.28;;;16.53;76.70
11987;BME280;6053;51.382;6.768;2023-04-21T12:31:47;100778.84;;;16.71;74.54
11987;BME280;6053;51.382;6.768;2023-04-21T12:34:16;100775.41;;;17.32;73.01
11987;BME280;6053;51.382;6.768;2023-04-21T12:36:46;100789.41;;;16.69;75.06
11987;BME280;6053;51.382;6.768;2023-04-21T12:39:14;100772.88;;;17.00;73.15
11987;BME280;6053;51.382;6.768;2023-04-21T12:41:43;100771.63;;;16.70;73.79
11987;BME280;6053;51.382;6.768;2023-04-21T12:44:13;100768.91;;;16.86;74.88
11987;BME280;6053;51.382;6.768;2023-04-21T12:46:43;100761.13;;;16.88;74.01
11987;BME280;6053;51.382;6.768;2023-04-21T12:49:11;100758.78;;;16.64;74.73
11987;BME280;6053;51.382;6.768;2023-04-21T12:51:41;100759.56;;;16.55;75.08
11987;BME280;6053;51.382;6.768;2023-04-21T12:54:12;100756.34;;;16.20;75.26
11987;BME280;6053;51.382;6.768;2023-04-21T12:56:41;100744.56;;;16.61;74.32
11987;BME280;6053;51.382;6.768;2023-04-21T12:59:10;100751.75;;;16.46;74.33
11987;BME280;6053;51.382;6.768;2023-04-21T13:01:39;100741.44;;;16.47;74.27
11987;BME280;6053;51.382;6.768;2023-04-21T13:04:08;100744.38;;;16.78;74.40
11987;BME280;6053;51.382;6.768;2023-04-21T13:06:38;100753.75;;;16.66;72.20
11987;BME280;6053;51.382;6.768;2023-04-21T13:09:06;100750.38;;;16.54;71.16
11987;BME280;6053;51.382;6.768;2023-04-21T13:11:36;100751.44;;;17.11;70.75